• Join FlightAware (Why Join?)
  • Login
  • US Flag 
01:06PM EDT


 

Airport Tracker/Info


-or-


 

Live Flight TrackerFlight Track Log ✈ SWA2975 ✈ 25-Oct-2013 ✈ KATL - KSDF

Flight Track Log - Related Links

Times and Time Zones

All times are in EDT time to prevent confusion due to time zone crossing. See the SWA2975 flight status page for this flight to view local times or setup timezone preferences in your user account.

Time Position Orientation Groundspeed Altitude Reporting Facility
EDT Latitude Longitude Course Direction KTS MPH feet Rate Location/Type
09:38PM 33.6556 -84.4881 297° West 428 493 3,300  Level Atlanta Center
09:39PM 33.6889 -84.5681 297° West 354 407 5,800 3,300 Climbing Atlanta Center
09:40PM 33.7575 -84.5836 349° North 279 321 9,900 3,960 Climbing Atlanta Center
09:41PM 33.8369 -84.5839 360° North 305 351 13,800 3,120 Climbing Atlanta Center
09:42PM 33.9308 -84.5822 North 316 364 16,200 2,580 Climbing Atlanta Center
09:43PM 34.0308 -84.5878 357° North 333 383 19,000 2,760 Climbing Atlanta Center
09:44PM 34.1311 -84.5908 359° North 372 428 21,800 2,280 Climbing Atlanta Center
09:45PM 34.2500 -84.5942 359° North 389 448 23,600 2,160 Climbing Atlanta Center
09:46PM 34.3586 -84.6125 352° North 395 455 26,200 2,280 Climbing Atlanta Center
09:47PM 34.4711 -84.6383 349° North 402 463 28,200 2,160 Climbing Atlanta Center
09:48PM 34.5858 -84.6669 348° North 412 474 30,600 1,860 Climbing Atlanta Center
09:49PM 34.6942 -84.6981 347° North 405 466 32,000 660 Climbing Atlanta Center
09:50PM 34.8086 -84.7269 348° North 405 466 32,000  Level Atlanta Center
09:51PM 34.9214 -84.7556 348° North 411 473 32,000  Level Atlanta Center
09:52PM 35.0358 -84.7819 349° North 411 473 32,000  Level Atlanta Center
09:53PM 35.1483 -84.8108 348° North 411 473 32,000  Level Atlanta Center
09:54PM 35.2589 -84.8375 349° North 411 473 32,000  Level Atlanta Center
09:55PM 35.3714 -84.8664 348° North 411 473 32,000  Level Atlanta Center
09:56PM 35.4836 -84.8958 348° North 411 473 32,000  Level Atlanta Center
09:57PM 35.5961 -84.9225 349° North 411 473 32,000 -660 Level Atlanta Center
09:59PM 35.8122 -84.9750 349° North 414 476 30,000 -660 Descending Indianapolis Center
10:00PM 35.9272 -85.0039 349° North 417 480 30,000  Level Indianapolis Center
10:01PM 36.0597 -85.0356 349° North 413 475 30,000  Level Indianapolis Center
10:02PM 36.1733 -85.0644 348° North 413 475 30,000  Level Indianapolis Center
10:03PM 36.2858 -85.0925 349° North 412 474 30,000 -180 Level Indianapolis Center
10:04PM 36.3975 -85.1206 349° North 411 473 29,700 -660 Descending Indianapolis Center
10:05PM 36.5114 -85.1489 349° North 414 476 28,700 -960 Descending Indianapolis Center
10:06PM 36.6278 -85.1581 356° North 425 489 27,800 -1,020 Descending Indianapolis Center
10:07PM 36.7467 -85.1339 North 429 494 26,700 -1,080 Descending Indianapolis Center
10:08PM 36.8617 -85.1119 North 419 482 25,700 -1,020 Descending Indianapolis Center
10:09PM 36.9753 -85.0897 North 414 476 24,700 -1,140 Descending Indianapolis Center
10:10PM 37.1028 -85.0631 North 406 467 23,500 -1,680 Descending Indianapolis Center
10:11PM 37.2128 -85.0425 North 400 460 21,400 -2,460 Descending Indianapolis Center
10:12PM 37.3208 -85.0008 17° North 410 472 18,600 -2,400 Descending Indianapolis Center
10:13PM 37.4222 -84.9517 21° North 379 436 16,500 -1,980 Descending Indianapolis Center
10:14PM 37.5153 -84.9339 North 364 419 14,600 -1,440 Descending Indianapolis Center
10:15PM 37.6081 -84.9464 354° North 339 390 13,600 -1,020 Descending Indianapolis Center
10:16PM 37.6872 -84.9975 333° Northwest 330 380 12,600 -1,380 Descending Indianapolis Center
10:17PM 37.7489 -85.0822 313° West 330 380 10,800 -1,440 Descending Indianapolis Center
10:18PM 37.8047 -85.1594 312° West 310 357 9,700 -1,320 Descending Indianapolis Center
10:19PM 37.8392 -85.2453 297° West 271 312 8,200 -1,500 Descending Indianapolis Center
10:20PM 37.8622 -85.3333 288° West 264 304 6,700 -1,560 Descending Indianapolis Center
10:22PM 37.8897 -85.4194 292° West 263 303 5,100 -1,380 Descending Indianapolis Center
10:23PM 37.9150 -85.5056 290° West 262 302 4,000 -840 Descending Indianapolis Center
10:24PM 37.9397 -85.5894 291° West 258 297 3,400 -660 Descending Indianapolis Center
10:25PM 37.9831 -85.6556 310° West 251 289 2,700 -480 Descending Indianapolis Center
10:26PM 38.0406 -85.7003 329° Northwest 248 285 2,500 -360 Descending Indianapolis Center
10:27PM 38.0878 -85.7142 347° North 202 232 2,000 -540 Descending Indianapolis Center
10:29PM 38.1741 -85.7365 345° North  Level Estimated
10:36PM 38.1741 -85.7365 208° Southwest  Level Estimated